createdAt,value
2019-01-24T00:01:49.963Z,35.23
2019-01-24T00:04:18.564Z,33.13
2019-01-24T00:06:47.055Z,35.80
2019-01-24T00:09:15.556Z,35.50
2019-01-24T00:11:44.071Z,35.57
2019-01-24T00:14:12.547Z,34.60
2019-01-24T00:16:41.115Z,35.40
2019-01-24T00:19:09.649Z,33.87
2019-01-24T00:21:38.108Z,35.00
2019-01-24T00:24:06.543Z,34.83
2019-01-24T00:26:34.915Z,34.60
2019-01-24T00:29:03.563Z,36.23
2019-01-24T00:31:32.055Z,33.93
2019-01-24T00:34:05.083Z,33.73
2019-01-24T00:36:34.732Z,35.63
2019-01-24T00:39:04.307Z,35.97
2019-01-24T00:41:32.784Z,35.67
2019-01-24T00:44:01.262Z,34.67
2019-01-24T00:46:29.728Z,36.90
2019-01-24T00:48:58.308Z,38.20
2019-01-24T00:51:26.859Z,37.30
2019-01-24T00:53:55.323Z,33.23
2019-01-24T00:56:23.763Z,35.00
2019-01-24T00:58:52.302Z,36.50
2019-01-24T01:01:20.767Z,35.27
2019-01-24T01:03:49.135Z,37.50
2019-01-24T01:06:17.663Z,36.40
2019-01-24T01:09:24.623Z,37.37
2019-01-24T01:11:53.170Z,35.23
2019-01-24T01:14:22.652Z,35.53
2019-01-24T01:16:51.063Z,36.50
2019-01-24T01:19:19.505Z,34.90
2019-01-24T01:21:47.955Z,35.87
2019-01-24T01:24:16.450Z,36.80
2019-01-24T01:26:44.868Z,35.73
2019-01-24T01:29:13.243Z,35.80
2019-01-24T01:31:41.791Z,37.97
2019-01-24T01:34:10.180Z,36.03
2019-01-24T01:36:38.671Z,38.40
2019-01-24T01:39:07.839Z,37.03
2019-01-24T01:41:36.419Z,37.90
2019-01-24T01:44:04.956Z,39.80
2019-01-24T01:46:33.499Z,36.93
2019-01-24T01:49:02.019Z,37.43
2019-01-24T01:51:30.487Z,38.33
2019-01-24T01:53:58.984Z,37.63
2019-01-24T01:56:27.481Z,37.30
2019-01-24T01:58:55.959Z,39.33
2019-01-24T02:01:24.412Z,36.90
2019-01-24T02:03:53.167Z,36.47
2019-01-24T02:06:21.614Z,38.90
2019-01-24T02:08:49.980Z,37.47
2019-01-24T02:11:21.059Z,40.13
2019-01-24T02:13:49.511Z,40.93
2019-01-24T02:16:18.107Z,39.43
2019-01-24T02:18:46.643Z,38.77
2019-01-24T02:21:15.214Z,41.40
2019-01-24T02:23:43.697Z,39.47
2019-01-24T02:26:12.150Z,40.90
2019-01-24T02:28:40.530Z,39.90
2019-01-24T02:31:09.189Z,41.33
2019-01-24T02:33:37.681Z,40.37
2019-01-24T02:36:06.160Z,40.83
2019-01-24T02:38:34.631Z,40.07
2019-01-24T02:41:03.047Z,40.57
2019-01-24T02:43:31.553Z,41.73
2019-01-24T02:45:59.938Z,41.40
2019-01-24T02:48:28.414Z,43.10
2019-01-24T02:50:56.897Z,42.43
2019-01-24T02:53:25.335Z,43.13
2019-01-24T02:55:53.859Z,41.87
2019-01-24T02:58:23.309Z,42.33
2019-01-24T03:00:51.774Z,42.80
2019-01-24T03:03:20.230Z,39.70
2019-01-24T03:05:48.709Z,42.33
2019-01-24T03:08:17.244Z,42.73
2019-01-24T03:10:45.701Z,42.20
2019-01-24T03:13:14.228Z,43.33
2019-01-24T03:15:42.748Z,42.37
2019-01-24T03:18:11.188Z,43.27
2019-01-24T03:20:39.647Z,44.83
2019-01-24T03:23:08.111Z,45.43
2019-01-24T03:25:36.562Z,46.33
2019-01-24T03:28:05.002Z,44.53
2019-01-24T03:30:33.475Z,41.53
2019-01-24T03:33:03.039Z,46.00
2019-01-24T03:35:31.581Z,45.63
2019-01-24T03:37:59.967Z,42.90
2019-01-24T03:40:28.411Z,44.20
2019-01-24T03:42:56.907Z,43.60
2019-01-24T03:45:25.361Z,43.83
2019-01-24T03:47:53.868Z,44.87
2019-01-24T03:50:23.385Z,45.53
2019-01-24T03:52:51.860Z,43.23
2019-01-24T03:55:20.839Z,44.03
2019-01-24T03:57:49.307Z,47.50
2019-01-24T04:00:18.928Z,45.20
2019-01-24T04:02:47.478Z,46.00
2019-01-24T04:05:17.732Z,46.23
2019-01-24T04:07:46.118Z,43.63
2019-01-24T04:10:15.751Z,45.77
2019-01-24T04:12:44.476Z,44.60
2019-01-24T04:15:14.466Z,45.90
2019-01-24T04:17:43.159Z,46.40
2019-01-24T04:20:11.723Z,47.60
2019-01-24T04:22:40.169Z,46.37
2019-01-24T04:25:11.247Z,46.03
2019-01-24T04:27:39.692Z,46.70
2019-01-24T04:30:09.534Z,44.93
2019-01-24T04:32:38.017Z,47.47
2019-01-24T04:35:07.295Z,47.80
2019-01-24T04:37:35.754Z,45.67
2019-01-24T04:40:04.671Z,45.10
2019-01-24T04:42:33.049Z,47.87
2019-01-24T04:45:01.464Z,46.90
2019-01-24T04:47:30.072Z,48.60
2019-01-24T04:50:00.639Z,48.00
2019-01-24T04:52:32.180Z,43.50
2019-01-24T04:55:00.697Z,48.23
2019-01-24T04:57:29.155Z,46.73
2019-01-24T04:59:57.746Z,46.97
2019-01-24T05:02:26.332Z,49.75
2019-01-24T05:04:54.847Z,46.13
2019-01-24T05:07:23.376Z,47.70
2019-01-24T05:09:51.923Z,50.93
2019-01-24T05:12:20.608Z,51.80
2019-01-24T05:14:49.087Z,48.33
2019-01-24T05:17:18.790Z,50.97
2019-01-24T05:19:47.242Z,49.53
2019-01-24T05:22:15.750Z,48.50
2019-01-24T05:24:44.160Z,48.70
2019-01-24T05:27:12.635Z,48.60
2019-01-24T05:29:41.237Z,50.33
2019-01-24T05:32:09.668Z,78.17
2019-01-24T05:34:38.048Z,65.63
2019-01-24T05:37:06.503Z,53.27
2019-01-24T05:39:36.215Z,51.90
2019-01-24T05:42:04.717Z,50.80
2019-01-24T05:44:33.347Z,48.67
2019-01-24T05:47:11.659Z,50.60
2019-01-24T05:49:40.169Z,50.07
2019-01-24T05:52:08.653Z,47.60
2019-01-24T05:54:39.384Z,49.80
2019-01-24T05:57:07.784Z,49.67
2019-01-24T05:59:36.337Z,66.02
2019-01-24T06:02:05.128Z,57.93
2019-01-24T06:04:34.323Z,53.50
2019-01-24T06:07:02.784Z,51.03
2019-01-24T06:09:31.556Z,51.80
2019-01-24T06:12:00.194Z,51.27
2019-01-24T06:14:28.716Z,68.62
2019-01-24T06:16:57.188Z,54.87
2019-01-24T06:19:28.214Z,51.53
2019-01-24T06:21:56.999Z,51.20
2019-01-24T06:24:25.536Z,48.93
2019-01-24T06:26:54.244Z,58.25
2019-01-24T06:29:22.827Z,55.13
2019-01-24T06:31:51.443Z,50.20
2019-01-24T06:34:20.025Z,49.43
2019-01-24T06:36:49.478Z,53.53
2019-01-24T06:39:21.268Z,66.82
2019-01-24T06:41:49.947Z,54.90
2019-01-24T06:44:18.723Z,52.23
2019-01-24T06:46:47.247Z,51.47
2019-01-24T06:49:15.748Z,56.70
2019-01-24T06:51:44.332Z,51.47
2019-01-24T06:54:15.729Z,51.43
2019-01-24T06:56:48.634Z,51.03
2019-01-24T06:59:17.050Z,49.87
2019-01-24T07:01:45.889Z,51.17
2019-01-24T07:04:14.442Z,48.77
2019-01-24T07:06:42.890Z,50.57
2019-01-24T07:09:11.321Z,70.47
2019-01-24T07:11:39.849Z,56.73
2019-01-24T07:14:08.243Z,51.63
2019-01-24T07:16:36.731Z,52.37
2019-01-24T07:19:05.237Z,53.00
2019-01-24T07:21:33.688Z,51.03
2019-01-24T07:24:02.145Z,50.33
2019-01-24T07:26:30.714Z,51.17
2019-01-24T07:28:59.203Z,52.73
2019-01-24T07:31:27.696Z,49.37
2019-01-24T07:33:56.176Z,49.57
2019-01-24T07:36:24.761Z,50.83
2019-01-24T07:38:53.259Z,50.63
2019-01-24T07:41:21.791Z,51.07
2019-01-24T07:43:50.336Z,49.60
2019-01-24T07:46:18.859Z,48.97
2019-01-24T07:48:47.417Z,48.13
2019-01-24T07:51:15.907Z,49.13
2019-01-24T07:53:45.835Z,48.53
2019-01-24T07:56:14.313Z,47.73
2019-01-24T07:58:42.800Z,47.63
2019-01-24T08:01:11.364Z,48.83
2019-01-24T08:03:39.856Z,50.20
2019-01-24T08:06:09.133Z,50.20
2019-01-24T08:08:38.215Z,48.03
2019-01-24T08:11:06.718Z,48.33
2019-01-24T08:13:35.189Z,49.17
2019-01-24T08:16:03.656Z,48.93
2019-01-24T08:18:32.167Z,52.77
2019-01-24T08:21:00.655Z,49.67
2019-01-24T08:23:29.140Z,48.00
2019-01-24T08:25:57.641Z,50.97
2019-01-24T08:28:26.199Z,47.93
2019-01-24T08:30:54.665Z,47.87
2019-01-24T08:33:23.351Z,50.67
2019-01-24T08:35:51.933Z,51.30
2019-01-24T08:38:20.390Z,52.33
2019-01-24T08:40:48.813Z,54.33
2019-01-24T08:43:17.577Z,50.00
2019-01-24T08:45:46.022Z,48.97
2019-01-24T08:48:14.570Z,48.73
2019-01-24T08:50:43.047Z,48.87
2019-01-24T08:53:11.503Z,49.13
2019-01-24T08:55:41.059Z,50.53
2019-01-24T08:58:09.915Z,49.77
2019-01-24T09:00:38.466Z,52.67
2019-01-24T09:03:07.308Z,49.50
2019-01-24T09:05:37.238Z,48.73
2019-01-24T09:08:05.990Z,49.90
2019-01-24T09:10:35.382Z,51.60
2019-01-24T09:13:05.356Z,50.00
2019-01-24T09:15:33.853Z,51.40
2019-01-24T09:18:02.371Z,48.70
2019-01-24T09:20:30.981Z,48.53
2019-01-24T09:23:02.599Z,51.93
2019-01-24T09:25:31.095Z,53.53
2019-01-24T09:27:59.786Z,50.10
2019-01-24T09:30:28.299Z,53.10
2019-01-24T09:32:56.823Z,52.67
2019-01-24T09:35:25.419Z,53.10
2019-01-24T09:37:55.973Z,52.03
2019-01-24T09:40:24.480Z,51.13
2019-01-24T09:42:52.967Z,53.93
2019-01-24T09:45:22.552Z,55.10
2019-01-24T09:47:51.475Z,54.03
2019-01-24T09:50:20.877Z,54.13
2019-01-24T09:52:49.327Z,51.00
2019-01-24T09:55:17.947Z,57.63
2019-01-24T09:57:46.558Z,53.73
2019-01-24T10:00:16.503Z,55.70
2019-01-24T10:02:45.054Z,54.37
2019-01-24T10:05:13.822Z,53.43
2019-01-24T10:07:44.323Z,55.80
2019-01-24T10:10:14.163Z,57.23
2019-01-24T10:12:42.707Z,56.70
2019-01-24T10:15:11.520Z,55.87
2019-01-24T10:17:39.994Z,53.10
2019-01-24T10:20:09.675Z,49.33
2019-01-24T10:22:38.173Z,48.93
2019-01-24T10:25:08.267Z,47.30
2019-01-24T10:27:36.642Z,50.73
2019-01-24T10:30:05.836Z,53.37
2019-01-24T10:32:34.351Z,50.57
2019-01-24T10:35:02.843Z,51.50
2019-01-24T10:37:32.753Z,51.80
2019-01-24T10:40:01.448Z,52.53
2019-01-24T10:42:29.912Z,53.70
2019-01-24T10:44:58.419Z,52.50
2019-01-24T10:47:26.972Z,49.70
2019-01-24T10:49:55.427Z,49.63
2019-01-24T10:52:23.891Z,52.23
2019-01-24T10:54:52.380Z,50.37
2019-01-24T10:57:20.765Z,51.87
2019-01-24T10:59:49.155Z,51.10
2019-01-24T11:02:17.757Z,48.50
2019-01-24T11:04:46.251Z,50.23
2019-01-24T11:07:14.840Z,52.70
2019-01-24T11:09:43.903Z,53.57
2019-01-24T11:12:12.440Z,53.57
2019-01-24T11:14:40.883Z,50.80
2019-01-24T11:17:09.319Z,49.63
2019-01-24T11:19:37.796Z,56.43
2019-01-24T11:22:06.272Z,53.07
2019-01-24T11:24:34.808Z,50.73
2019-01-24T11:27:03.277Z,49.37
2019-01-24T11:29:31.759Z,51.07
2019-01-24T11:32:00.256Z,52.40
2019-01-24T11:34:28.776Z,52.07
2019-01-24T11:36:57.432Z,53.83
2019-01-24T11:39:25.949Z,50.87
2019-01-24T11:41:54.491Z,55.53
2019-01-24T11:44:23.029Z,55.67
2019-01-24T11:46:51.427Z,52.90
2019-01-24T11:49:19.856Z,59.17
2019-01-24T11:51:48.216Z,59.20
2019-01-24T11:54:16.683Z,53.50
2019-01-24T11:56:45.164Z,58.43
2019-01-24T11:59:13.630Z,54.70
2019-01-24T12:01:42.089Z,54.27
2019-01-24T12:04:10.459Z,51.93
2019-01-24T12:06:38.824Z,51.23
2019-01-24T12:09:08.098Z,56.80
2019-01-24T12:11:36.616Z,55.90
2019-01-24T12:14:05.067Z,51.83
2019-01-24T12:16:33.544Z,56.17
2019-01-24T12:19:01.999Z,52.70
2019-01-24T12:21:30.455Z,53.77
2019-01-24T12:23:58.955Z,60.07
2019-01-24T12:26:27.451Z,59.30
2019-01-24T12:28:55.927Z,55.73
2019-01-24T12:31:24.386Z,58.73
2019-01-24T12:33:52.887Z,61.53
2019-01-24T12:36:21.311Z,56.83
2019-01-24T12:38:49.782Z,60.43
2019-01-24T12:41:18.340Z,59.77
2019-01-24T12:43:46.896Z,58.07
2019-01-24T12:46:15.274Z,57.03
2019-01-24T12:48:43.853Z,57.50
2019-01-24T12:51:12.311Z,55.77
2019-01-24T12:53:40.792Z,55.43
2019-01-24T12:56:09.306Z,55.57
2019-01-24T12:58:38.290Z,54.87
2019-01-24T13:01:06.761Z,55.23
2019-01-24T13:03:35.219Z,54.23
2019-01-24T13:06:03.697Z,56.60
2019-01-24T13:08:32.152Z,58.07
2019-01-24T13:11:00.818Z,56.93
2019-01-24T13:13:29.380Z,54.43
2019-01-24T13:15:57.843Z,54.27
2019-01-24T13:18:26.329Z,54.90
2019-01-24T13:20:54.799Z,52.60
2019-01-24T13:23:23.274Z,51.87
2019-01-24T13:25:51.723Z,53.70
2019-01-24T13:28:20.212Z,52.30
2019-01-24T13:30:48.607Z,52.10
2019-01-24T13:33:17.171Z,54.50
2019-01-24T13:35:45.698Z,53.30
2019-01-24T13:38:14.216Z,53.83
2019-01-24T13:40:42.721Z,52.47
2019-01-24T13:43:11.207Z,57.67
2019-01-24T13:45:39.884Z,53.33
2019-01-24T13:48:08.464Z,56.60
2019-01-24T13:50:36.972Z,55.30
2019-01-24T13:53:06.016Z,57.47
2019-01-24T13:55:34.465Z,54.20
2019-01-24T13:58:02.940Z,55.87
2019-01-24T14:00:32.303Z,58.30
2019-01-24T14:03:05.536Z,56.07
2019-01-24T14:05:33.922Z,57.93
2019-01-24T14:08:02.393Z,59.33
2019-01-24T14:10:30.966Z,57.13
2019-01-24T14:12:59.520Z,55.27
2019-01-24T14:15:27.965Z,54.03
2019-01-24T14:17:56.444Z,54.60
2019-01-24T14:20:24.907Z,53.00
2019-01-24T14:22:53.374Z,54.87
2019-01-24T14:25:21.943Z,51.50
2019-01-24T14:27:50.407Z,54.00
2019-01-24T14:30:19.953Z,54.83
2019-01-24T14:32:48.443Z,54.13
2019-01-24T14:35:17.072Z,53.97
2019-01-24T14:37:45.567Z,51.07
2019-01-24T14:40:14.043Z,56.20
2019-01-24T14:42:42.522Z,52.97
2019-01-24T14:45:12.547Z,53.93
2019-01-24T14:47:41.105Z,54.43
2019-01-24T14:50:11.544Z,53.47
2019-01-24T14:52:40.213Z,54.93
2019-01-24T14:55:09.338Z,54.97
2019-01-24T14:57:38.206Z,52.30
2019-01-24T15:00:09.884Z,56.23
2019-01-24T15:02:38.501Z,54.40
2019-01-24T15:05:08.225Z,48.43
2019-01-24T15:07:36.736Z,56.33
2019-01-24T15:10:05.764Z,53.67
2019-01-24T15:12:34.224Z,59.07
2019-01-24T15:15:02.724Z,54.13
2019-01-24T15:17:31.397Z,56.60
2019-01-24T15:19:59.873Z,54.20
2019-01-24T15:22:28.401Z,54.43
2019-01-24T15:24:56.943Z,52.87
2019-01-24T15:27:25.427Z,54.20
2019-01-24T15:29:54.011Z,53.47
2019-01-24T15:32:22.793Z,55.20
2019-01-24T15:34:51.328Z,56.53
2019-01-24T15:37:20.362Z,56.60
2019-01-24T15:39:48.926Z,56.87
2019-01-24T15:42:17.459Z,55.47
2019-01-24T15:44:45.977Z,57.93
2019-01-24T15:47:14.491Z,58.03
2019-01-24T15:49:43.282Z,58.17
2019-01-24T15:52:11.814Z,58.83
2019-01-24T15:54:40.196Z,57.90
2019-01-24T15:57:09.715Z,60.30
2019-01-24T15:59:38.441Z,65.87
2019-01-24T16:02:07.069Z,60.87
2019-01-24T16:04:35.678Z,63.07
2019-01-24T16:07:04.345Z,60.23
2019-01-24T16:09:34.901Z,56.47
2019-01-24T16:12:03.442Z,53.77
2019-01-24T16:14:31.932Z,52.23
2019-01-24T16:17:01.446Z,51.57
2019-01-24T16:19:30.589Z,54.83
2019-01-24T16:21:59.148Z,57.40
2019-01-24T16:24:28.133Z,51.03
2019-01-24T16:26:56.673Z,56.23
2019-01-24T16:29:25.259Z,55.00
2019-01-24T16:31:53.729Z,51.57
2019-01-24T16:34:22.438Z,54.37
2019-01-24T16:36:50.974Z,51.63
2019-01-24T16:39:19.613Z,53.60
2019-01-24T16:41:48.279Z,54.83
2019-01-24T16:44:16.847Z,57.07
2019-01-24T16:46:45.311Z,53.70
2019-01-24T16:49:13.932Z,55.33
2019-01-24T16:51:42.551Z,53.57
2019-01-24T16:54:11.012Z,53.63
2019-01-24T16:56:44.819Z,72.03
2019-01-24T16:59:13.243Z,60.17
2019-01-24T17:01:41.827Z,57.20
2019-01-24T17:04:10.411Z,54.17
2019-01-24T17:06:38.975Z,54.87
2019-01-24T17:09:09.065Z,55.97
2019-01-24T17:11:37.526Z,52.83
2019-01-24T17:14:06.562Z,52.37
2019-01-24T17:16:35.324Z,52.40
2019-01-24T17:19:04.515Z,51.73
2019-01-24T17:21:33.020Z,50.57
2019-01-24T17:24:01.483Z,52.50
2019-01-24T17:26:29.999Z,55.63
2019-01-24T17:28:58.584Z,52.77
2019-01-24T17:31:28.281Z,54.17
2019-01-24T17:34:19.382Z,54.93
2019-01-24T17:36:48.133Z,53.40
2019-01-24T17:39:16.587Z,52.27
2019-01-24T17:41:45.055Z,52.90
2019-01-24T17:44:13.635Z,53.23
2019-01-24T17:46:42.383Z,51.73
2019-01-24T17:49:11.196Z,55.13
2019-01-24T17:51:44.811Z,54.67
2019-01-24T17:54:14.304Z,52.70
2019-01-24T17:56:42.765Z,52.23
2019-01-24T17:59:11.434Z,54.13
2019-01-24T18:01:39.988Z,57.67
2019-01-24T18:04:08.548Z,54.03
2019-01-24T18:06:36.997Z,54.40
2019-01-24T18:09:06.842Z,53.60
2019-01-24T18:11:36.338Z,54.43
2019-01-24T18:14:05.848Z,55.83
2019-01-24T18:16:34.300Z,55.53
2019-01-24T18:19:02.736Z,54.87
2019-01-24T18:21:31.370Z,55.80
2019-01-24T18:23:59.833Z,55.90
2019-01-24T18:26:28.488Z,56.10
2019-01-24T18:28:56.991Z,54.07
2019-01-24T18:31:25.451Z,52.67
2019-01-24T18:33:54.284Z,55.50
2019-01-24T18:36:23.071Z,54.37
2019-01-24T18:38:52.148Z,54.50
2019-01-24T18:41:23.806Z,53.83
2019-01-24T18:46:07.022Z,52.63
2019-01-24T18:46:57.795Z,51.73
2019-01-24T18:49:26.511Z,52.07
2019-01-24T18:51:54.983Z,55.70
2019-01-24T18:54:26.142Z,53.67
2019-01-24T18:57:23.165Z,54.13
2019-01-24T18:59:51.870Z,54.73
2019-01-24T19:02:20.628Z,51.80
2019-01-24T19:05:03.592Z,54.03
2019-01-24T19:07:46.871Z,52.53
2019-01-24T19:10:36.165Z,50.37
2019-01-24T19:13:26.048Z,52.43
2019-01-24T19:15:57.729Z,52.30
2019-01-24T19:18:28.848Z,54.07
2019-01-24T19:20:57.364Z,52.70
2019-01-24T19:23:28.074Z,52.03
2019-01-24T19:25:56.899Z,69.90
2019-01-24T19:28:25.654Z,57.23
2019-01-24T19:30:54.338Z,57.67
2019-01-24T19:33:43.465Z,54.50
2019-01-24T19:39:54.007Z,50.10
2019-01-24T19:42:18.544Z,55.70
2019-01-24T19:44:47.200Z,53.67
2019-01-24T19:47:50.267Z,50.90
2019-01-24T19:51:08.339Z,50.53
2019-01-24T19:53:40.045Z,51.90
2019-01-24T19:56:12.077Z,51.17
2019-01-24T19:58:40.731Z,50.23
2019-01-24T20:01:09.409Z,52.10
2019-01-24T20:03:50.877Z,50.83
2019-01-24T20:06:33.923Z,51.30
2019-01-24T20:09:11.699Z,49.10
2019-01-24T20:11:59.899Z,53.57
2019-01-24T20:14:39.340Z,53.80
2019-01-24T20:17:19.985Z,52.63
2019-01-24T20:19:54.583Z,50.63
2019-01-24T20:22:31.119Z,51.30
2019-01-24T20:24:59.851Z,51.50
2019-01-24T20:27:29.944Z,52.47
2019-01-24T20:30:16.141Z,49.40
2019-01-24T20:32:46.755Z,51.37
2019-01-24T20:35:20.650Z,52.40
2019-01-24T20:37:50.293Z,49.73
2019-01-24T20:40:20.522Z,50.40
2019-01-24T20:42:49.563Z,51.47
2019-01-24T20:45:19.183Z,50.83
2019-01-24T20:47:50.419Z,55.13
2019-01-24T20:50:45.685Z,53.73
2019-01-24T20:53:38.380Z,55.10
2019-01-24T20:56:07.157Z,50.37
2019-01-24T20:58:37.517Z,51.70
2019-01-24T21:01:13.653Z,52.00
2019-01-24T21:03:55.117Z,50.70
2019-01-24T21:06:27.920Z,49.80
2019-01-24T21:08:59.944Z,51.77
2019-01-24T21:12:01.425Z,53.00
2019-01-24T21:14:47.135Z,49.37
2019-01-24T21:17:20.523Z,50.77
2019-01-24T21:20:02.163Z,51.60
2019-01-24T21:22:40.181Z,49.93
2019-01-24T21:25:00.264Z,50.47
2019-01-24T21:27:29.629Z,52.37
2019-01-24T21:30:11.465Z,51.57
2019-01-24T21:33:03.377Z,52.30
2019-01-24T21:35:55.063Z,49.30
2019-01-24T21:38:20.296Z,52.20
2019-01-24T21:41:01.426Z,50.33
2019-01-24T21:43:57.239Z,51.07
2019-01-24T21:47:49.639Z,50.10
2019-01-24T21:53:26.234Z,50.53
2019-01-24T21:56:04.286Z,51.07
2019-01-24T21:59:08.397Z,51.40
2019-01-24T22:01:56.570Z,51.77
2019-01-24T22:11:18.584Z,51.40
2019-01-24T22:14:39.598Z,54.07
2019-01-24T22:19:26.926Z,50.03
2019-01-24T22:20:57.325Z,49.27
2019-01-24T22:27:13.990Z,49.73
2019-01-24T22:33:47.170Z,49.67
2019-01-24T22:36:43.374Z,51.07
2019-01-24T22:43:06.975Z,49.60
2019-01-24T22:46:00.275Z,50.57
2019-01-24T22:49:24.894Z,49.87
2019-01-24T22:52:09.908Z,47.30
2019-01-24T22:55:33.682Z,50.33
2019-01-24T23:04:55.791Z,49.67
2019-01-24T23:08:06.827Z,50.20
2019-01-24T23:11:09.425Z,50.33
2019-01-24T23:15:19.854Z,49.03
2019-01-24T23:18:41.950Z,50.53
2019-01-24T23:20:37.276Z,48.77
2019-01-24T23:34:12.597Z,49.83
2019-01-24T23:37:07.891Z,48.90
2019-01-24T23:40:28.991Z,46.93
2019-01-24T23:50:16.847Z,51.00
2019-01-24T23:54:58.903Z,49.33
2019-01-24T23:56:19.121Z,49.80
